createdAt,value
2022-09-26T00:01:53.106Z,13.21
2022-09-26T00:04:54.726Z,13.23
2022-09-26T00:08:09.895Z,13.24
2022-09-26T00:11:19.894Z,13.23
2022-09-26T00:14:36.898Z,13.15
2022-09-26T00:17:45.380Z,13.24
2022-09-26T00:20:53.841Z,13.17
2022-09-26T00:24:09.880Z,13.32
2022-09-26T00:27:24.839Z,13.34
2022-09-26T00:30:26.711Z,13.37
2022-09-26T00:33:42.890Z,13.30
2022-09-26T00:36:51.343Z,13.36
2022-09-26T00:39:59.847Z,13.30
2022-09-26T00:43:26.487Z,13.36
2022-09-26T00:46:48.863Z,13.34
2022-09-26T00:50:02.140Z,13.32
2022-09-26T00:53:21.876Z,13.29
2022-09-26T00:56:30.837Z,13.29
2022-09-26T00:59:49.869Z,13.31
2022-09-26T01:02:58.803Z,13.30
2022-09-26T01:06:07.852Z,13.31
2022-09-26T01:09:22.867Z,13.33
2022-09-26T01:12:32.738Z,13.15
2022-09-26T01:15:41.875Z,13.21
2022-09-26T01:18:56.908Z,13.27
2022-09-26T01:22:30.329Z,13.30
2022-09-26T01:26:14.932Z,13.29
2022-09-26T01:29:54.893Z,13.36
2022-09-26T01:33:21.986Z,13.39
2022-09-26T01:37:03.864Z,13.39
2022-09-26T01:40:30.978Z,13.35
2022-09-26T01:43:48.179Z,13.31
2022-09-26T01:47:11.912Z,13.22
2022-09-26T01:50:35.856Z,13.25
2022-09-26T01:53:43.922Z,13.26
2022-09-26T01:57:01.964Z,13.15
2022-09-26T02:00:06.683Z,13.18
2022-09-26T02:03:25.939Z,13.23
2022-09-26T02:06:50.876Z,12.70
2022-09-26T02:09:58.171Z,13.18
2022-09-26T02:13:20.869Z,13.24
2022-09-26T02:16:44.940Z,13.24
2022-09-26T02:19:53.660Z,13.09
2022-09-26T02:23:08.872Z,13.04
2022-09-26T02:26:16.875Z,12.98
2022-09-26T02:29:25.802Z,12.93
2022-09-26T02:32:41.918Z,13.02
2022-09-26T02:35:49.960Z,13.04
2022-09-26T02:39:04.864Z,13.10
2022-09-26T02:42:38.871Z,13.10
2022-09-26T02:45:47.305Z,13.06
2022-09-26T02:49:32.898Z,13.08
2022-09-26T02:53:04.921Z,13.04
2022-09-26T02:56:24.755Z,13.01
2022-09-26T02:59:52.911Z,12.91
2022-09-26T03:03:07.906Z,12.90
2022-09-26T03:06:20.177Z,12.77
2022-09-26T03:09:36.888Z,12.89
2022-09-26T03:12:39.920Z,12.96
2022-09-26T03:15:59.936Z,13.00
2022-09-26T03:19:16.668Z,12.87
2022-09-26T03:22:24.893Z,12.92
2022-09-26T03:25:39.907Z,12.95
2022-09-26T03:28:41.626Z,12.90
2022-09-26T03:31:55.960Z,12.93
2022-09-26T03:35:10.952Z,12.90
2022-09-26T03:38:18.979Z,12.90
2022-09-26T03:41:34.232Z,12.86
2022-09-26T03:44:48.891Z,12.73
2022-09-26T03:47:58.259Z,12.81
2022-09-26T03:51:15.896Z,12.73
2022-09-26T03:54:17.458Z,12.86
2022-09-26T03:57:31.882Z,12.78
2022-09-26T04:00:40.781Z,12.84
2022-09-26T04:03:51.439Z,12.81
2022-09-26T04:07:00.106Z,12.78
2022-09-26T04:10:14.899Z,12.81
2022-09-26T04:13:49.579Z,12.85
2022-09-26T04:16:51.823Z,12.87
2022-09-26T04:20:06.993Z,12.83
2022-09-26T04:23:14.914Z,12.84
2022-09-26T04:26:29.911Z,12.83
2022-09-26T04:29:31.506Z,12.83
2022-09-26T04:32:45.911Z,12.83
2022-09-26T04:36:01.963Z,12.83
2022-09-26T04:39:04.508Z,12.83
2022-09-26T04:42:25.905Z,12.82
2022-09-26T04:45:34.347Z,12.65
2022-09-26T04:48:42.948Z,12.86
2022-09-26T04:51:51.404Z,12.91
2022-09-26T04:54:59.914Z,12.93
2022-09-26T04:58:14.920Z,12.93
2022-09-26T05:01:31.943Z,12.97
2022-09-26T05:04:34.239Z,13.03
2022-09-26T05:07:49.986Z,12.97
2022-09-26T05:10:58.431Z,12.92
2022-09-26T05:14:06.985Z,12.93
2022-09-26T05:17:15.517Z,13.02
2022-09-26T05:20:23.965Z,12.95
2022-09-26T05:23:33.421Z,13.05
2022-09-26T05:26:54.971Z,12.96
2022-09-26T05:29:56.554Z,12.91
2022-09-26T05:33:11.957Z,13.00
2022-09-26T05:36:20.558Z,12.88
2022-09-26T05:39:28.987Z,12.95
2022-09-26T05:42:50.976Z,12.89
2022-09-26T05:46:08.931Z,12.93
2022-09-26T05:49:10.585Z,12.93
2022-09-26T05:52:24.990Z,12.88
2022-09-26T05:55:28.479Z,13.01
2022-09-26T05:58:45.949Z,13.07
2022-09-26T06:01:54.658Z,13.02
2022-09-26T06:05:03.023Z,13.17
2022-09-26T06:08:21.011Z,13.20
2022-09-26T06:11:29.727Z,13.13
2022-09-26T06:18:04.955Z,13.14
2022-09-26T06:21:17.955Z,13.12
2022-09-26T06:24:33.382Z,13.14
2022-09-26T06:27:41.543Z,13.12
2022-09-26T06:30:50.060Z,13.24
2022-09-26T06:34:21.580Z,13.27
2022-09-26T06:37:36.054Z,13.23
2022-09-26T06:40:45.132Z,13.39
2022-09-26T06:44:07.063Z,13.48
2022-09-26T06:47:15.728Z,13.46
2022-09-26T06:50:23.967Z,13.41
2022-09-26T06:53:32.871Z,13.39
2022-09-26T06:56:50.059Z,13.46
2022-09-26T07:00:55.959Z,13.59
2022-09-26T07:08:50.482Z,13.64
2022-09-26T07:12:14.548Z,13.60
2022-09-26T07:15:44.773Z,13.65
2022-09-26T07:19:05.296Z,13.69
2022-09-26T07:22:53.699Z,13.72
2022-09-26T07:26:25.044Z,13.83
2022-09-26T07:29:36.076Z,14.00
2022-09-26T07:41:03.714Z,13.85
2022-09-26T07:45:20.950Z,13.93
2022-09-26T07:48:08.752Z,13.99
2022-09-26T07:51:18.011Z,14.26
2022-09-26T07:54:46.403Z,14.62
2022-09-26T07:58:13.990Z,14.57
2022-09-26T08:01:29.428Z,14.50
2022-09-26T08:05:04.828Z,14.33
2022-09-26T08:12:09.062Z,14.54
2022-09-26T08:15:27.256Z,14.41
2022-09-26T08:18:36.064Z,14.79
2022-09-26T08:21:54.966Z,14.74
2022-09-26T08:25:08.724Z,14.91
2022-09-26T08:32:36.505Z,15.05
2022-09-26T08:44:47.947Z,15.07
2022-09-26T08:48:49.476Z,15.14
2022-09-26T08:52:19.820Z,14.84
2022-09-26T08:55:47.327Z,15.62
2022-09-26T09:11:32.155Z,15.39
2022-09-26T09:15:29.843Z,15.49
2022-09-26T09:19:37.203Z,15.69
2022-09-26T09:31:30.220Z,16.60
2022-09-26T09:38:38.855Z,16.62
2022-09-26T10:02:15.080Z,17.62
2022-09-26T10:06:45.861Z,18.14
2022-09-26T10:10:04.052Z,18.88
2022-09-26T10:31:42.858Z,17.29
2022-09-26T10:35:31.263Z,17.59
2022-09-26T10:39:14.066Z,17.66
2022-09-26T10:42:53.362Z,17.69
2022-09-26T10:51:49.340Z,17.38
2022-09-26T10:55:01.411Z,17.70
2022-09-26T11:55:16.568Z,19.15
2022-09-26T12:03:43.853Z,18.78
2022-09-26T12:23:01.705Z,18.12
2022-09-26T13:03:00.930Z,18.40
2022-09-26T13:27:45.064Z,19.15
2022-09-26T13:43:24.283Z,18.68
2022-09-26T14:03:47.129Z,18.21
2022-09-26T14:07:24.412Z,18.12
2022-09-26T14:11:11.303Z,17.96
2022-09-26T14:14:47.119Z,17.93
2022-09-26T14:18:37.319Z,17.83
2022-09-26T14:22:09.432Z,17.93
2022-09-26T14:34:10.332Z,17.66
2022-09-26T14:37:50.365Z,17.68
2022-09-26T14:41:06.110Z,17.70
2022-09-26T14:44:48.317Z,17.68
2022-09-26T14:52:35.501Z,16.85
2022-09-26T15:00:49.754Z,17.53
2022-09-26T15:08:53.106Z,18.34
2022-09-26T15:16:46.839Z,17.70
2022-09-26T15:19:59.445Z,17.52
2022-09-26T15:27:26.909Z,17.70
2022-09-26T15:30:37.030Z,17.65
2022-09-26T15:34:18.917Z,17.44
2022-09-26T15:37:24.691Z,17.54
2022-09-26T15:40:39.046Z,17.52
2022-09-26T15:43:47.591Z,17.47
2022-09-26T15:46:56.962Z,17.43
2022-09-26T15:50:27.302Z,17.26
2022-09-26T15:53:53.145Z,17.10
2022-09-26T15:57:09.936Z,17.01
2022-09-26T16:00:19.172Z,16.94
2022-09-26T16:07:39.030Z,16.99
2022-09-26T16:10:59.529Z,16.81
2022-09-26T16:14:07.915Z,16.66
2022-09-26T16:17:48.194Z,16.51
2022-09-26T16:21:17.423Z,16.35
2022-09-26T16:24:41.096Z,16.24
2022-09-26T16:35:46.805Z,15.94
2022-09-26T16:38:59.946Z,15.80
2022-09-26T16:42:17.186Z,15.70
2022-09-26T16:45:34.972Z,15.58
2022-09-26T16:48:54.156Z,15.43
2022-09-26T16:52:27.906Z,15.40
2022-09-26T16:55:44.915Z,15.34
2022-09-26T16:58:54.616Z,15.29
2022-09-26T17:02:15.974Z,15.18
2022-09-26T17:05:40.935Z,14.90
2022-09-26T17:09:36.141Z,15.08
2022-09-26T17:21:29.028Z,14.76
2022-09-26T17:44:03.469Z,14.31
2022-09-26T17:46:49.684Z,14.40
2022-09-26T17:54:22.687Z,14.21
2022-09-26T17:55:12.043Z,14.10
2022-09-26T18:22:02.947Z,13.92
2022-09-26T18:25:44.152Z,13.79
2022-09-26T18:41:21.987Z,13.30
2022-09-26T18:45:08.933Z,13.60
2022-09-26T18:48:37.940Z,13.39
2022-09-26T18:52:01.790Z,13.82
2022-09-26T18:55:39.053Z,13.82
2022-09-26T19:18:37.437Z,13.59
2022-09-26T19:30:31.967Z,13.37
2022-09-26T19:35:03.879Z,13.23
2022-09-26T19:38:50.849Z,12.98
2022-09-26T19:42:03.109Z,13.37
2022-09-26T19:45:41.451Z,13.35
2022-09-26T19:48:43.275Z,12.85
2022-09-26T20:14:25.974Z,13.56
2022-09-26T20:17:42.984Z,13.59
2022-09-26T20:21:22.941Z,13.67
2022-09-26T20:24:53.977Z,13.79
2022-09-26T20:28:08.922Z,13.77
2022-09-26T20:31:21.914Z,13.78
2022-09-26T20:34:29.951Z,13.78
2022-09-26T20:37:40.292Z,13.71
2022-09-26T20:40:49.003Z,13.68
2022-09-26T20:44:07.980Z,13.58
2022-09-26T20:47:19.954Z,13.46
2022-09-26T20:50:33.813Z,13.69
2022-09-26T20:53:49.297Z,13.74
2022-09-26T20:57:04.943Z,13.63
2022-09-26T21:00:08.469Z,13.55
2022-09-26T21:03:24.964Z,13.57
2022-09-26T21:06:34.374Z,13.61
2022-09-26T21:10:02.052Z,13.71
2022-09-26T21:13:43.935Z,13.68
2022-09-26T21:17:19.136Z,13.56
2022-09-26T21:20:32.946Z,13.59
2022-09-26T21:23:49.972Z,13.66
2022-09-26T21:27:17.351Z,13.69
2022-09-26T21:30:27.011Z,13.72
2022-09-26T21:33:47.434Z,13.71
2022-09-26T21:36:59.923Z,13.68
2022-09-26T21:40:09.460Z,13.67
2022-09-26T21:43:28.939Z,13.66
2022-09-26T21:46:30.778Z,13.69
2022-09-26T21:49:46.235Z,13.55
2022-09-26T21:53:02.020Z,13.51
2022-09-26T21:56:16.951Z,13.55
2022-09-26T21:59:25.692Z,13.52
2022-09-26T22:02:34.111Z,13.54
2022-09-26T22:05:42.604Z,13.58
2022-09-26T22:08:57.295Z,13.35
2022-09-26T22:11:58.903Z,13.65
2022-09-26T22:15:20.988Z,13.69
2022-09-26T22:18:29.571Z,13.57
2022-09-26T22:21:37.967Z,13.59
2022-09-26T22:24:52.954Z,13.63
2022-09-26T22:28:01.938Z,13.62
2022-09-26T22:31:11.024Z,13.62
2022-09-26T22:34:20.695Z,13.61
2022-09-26T22:37:28.975Z,13.57
2022-09-26T22:40:37.789Z,13.46
2022-09-26T22:43:51.985Z,13.37
2022-09-26T22:46:53.622Z,13.55
2022-09-26T22:50:07.979Z,13.48
2022-09-26T22:53:09.902Z,13.43
2022-09-26T22:56:44.983Z,13.41
2022-09-26T22:59:46.942Z,13.32
2022-09-26T23:03:02.001Z,13.60
2022-09-26T23:06:11.402Z,13.62
2022-09-26T23:09:19.994Z,13.55
2022-09-26T23:12:42.007Z,13.47
2022-09-26T23:15:51.010Z,13.30
2022-09-26T23:18:59.563Z,13.11
2022-09-26T23:22:08.021Z,13.12
2022-09-26T23:25:23.033Z,13.09
2022-09-26T23:28:39.261Z,12.83
2022-09-26T23:31:46.967Z,13.02
2022-09-26T23:34:55.700Z,13.05
2022-09-26T23:38:05.285Z,13.02
2022-09-26T23:41:33.326Z,12.96
2022-09-26T23:44:48.000Z,13.01
2022-09-26T23:47:56.286Z,12.89
2022-09-26T23:51:05.439Z,12.90
2022-09-26T23:54:35.097Z,12.91
2022-09-26T23:57:36.664Z,12.84
